Craig Municipal Airport
KCRG : now visible

Airfield :











YOU CAN JOIN US ON...

 
LOGIN :

Register | Disclaimer

   EN    FR    IT 

 









Legend :    VFR   Marginal VFR   IFR   Intensive IFR   Very Intensive IFR
Visi :
Ceiling :
>= 8 km
>= 3000ft
5 to 8 km
1000 to 3000 ft
1500m to 5 km
500 to 1000 ft
800 to 1500m
200 to 500 ft
< 800m
< 200 ft
Symbols :   Thunderstorms  Fog  Heavy snow  Heavy precipitations  Wind > 20 kt






- Airport Elevation : 41 ft


KCRG - Craig Municipal

CURRENT METAR :
  • 251953Z 09009KT 10SM FEW019 FEW043 28/23 A2987 RMK AO2 SLP116 T02830228

EXPIRED METARs :
  • 251901Z 06006KT 10SM SCT025 SCT032 28/23 A2987 RMK AO2 T02780228
  • 251823Z 08009KT 10SM FEW021 BKN027 28/23 A2988 RMK AO2 T02830233
  • 251753Z 08007KT 10SM FEW018 28/23 A2990 RMK AO2 SLP123 T02830233 10306 20222 58017
  • 251653Z 32004KT 10SM CLR 30/21 A2992 RMK AO2 SLP131 T03000206

TAF KCRG
Valid from the 25 at 18:00 until the 26 at 18:00 UTC


251829Z 2518/2618 08009KT P6SM VCSH FEW022 SCT030
TEMPO 2518/2520 BKN027
FM252200 06006KT P6SM FEW030 SCT250
FM260700 00000KT 4SM BR SCT007 OVC015
FM261000 02002KT 1 1/2SM BR BKN007
FM261400 05007KT P6SM FEW015 SCT025 BKN035
KZJX FIR / North America



MET'MAP, your aeronautical weather chart ! - Copyright ORBIFLY December 2007 - Disclaimer

ORBIFLY MET'MAP TEAM :

Programming & Development : Alexandra Zaïnal
Concept & original design : Baudouin d'Aumeries
Assistance for programming : Marc-Olivier Méhu
Technical & hardware support : Manuel Goepfert

Contact : metmap@orbifly.com




SOURCES & CREDITS :

   NOAA       Earth
Advisory